Time;durP1;ratioP1;P1;durP2;ratioP2;P2;SDS_P1;SDS_P2;PMS_P1;PMS_P2;Temp;Humidity;BMP_temperature;BMP_pressure;BME280_temperature;BME280_humidity;BME280_pressure;Samples;Min_cycle;Max_cycle;Signal;HPM_P1;HPM_P2
2022/10/15 00:01:51;;;;;;;17.80;11.27;;;18.30;89.40;;;;;;5013585;28;20200;-94
2022/10/15 00:04:23;;;;;;;16.70;10.90;;;18.20;89.10;;;;;;5016446;28;20208;-94
2022/10/15 00:06:53;;;;;;;13.00;9.60;;;18.30;89.50;;;;;;4996934;28;20292;-95
2022/10/15 00:09:25;;;;;;;13.60;8.90;;;18.30;89.60;;;;;;5009650;28;20231;-94
2022/10/15 00:11:52;;;;;;;15.80;9.83;;;18.20;90.00;;;;;;5003081;28;20241;-95
2022/10/15 00:14:19;;;;;;;11.53;8.87;;;18.20;89.40;;;;;;5016230;28;20204;-94
2022/10/15 00:16:50;;;;;;;12.13;8.37;;;18.20;89.50;;;;;;5012262;28;20218;-93
2022/10/15 00:19:18;;;;;;;14.13;9.53;;;18.20;89.70;;;;;;5021953;28;20239;-94
2022/10/15 00:21:51;;;;;;;11.57;8.70;;;18.20;89.90;;;;;;5024287;28;20269;-93
2022/10/15 00:24:20;;;;;;;13.17;8.43;;;18.20;90.10;;;;;;5018476;28;20282;-94
2022/10/15 00:26:50;;;;;;;12.07;8.00;;;18.10;90.10;;;;;;5013391;28;20232;-93
2022/10/15 00:29:18;;;;;;;13.27;7.23;;;18.20;90.40;;;;;;5016213;28;20216;-94
2022/10/15 00:31:50;;;;;;;15.90;9.60;;;18.10;90.20;;;;;;5015165;28;20235;-94
2022/10/15 00:34:20;;;;;;;13.43;8.63;;;18.10;90.20;;;;;;4999550;28;20203;-94
2022/10/15 00:36:53;;;;;;;11.83;8.10;;;18.20;90.40;;;;;;5013453;28;20216;-94
2022/10/15 00:39:21;;;;;;;16.10;8.57;;;18.10;90.30;;;;;;5014709;28;20211;-94
2022/10/15 00:41:58;;;;;;;11.70;8.00;;;18.10;90.10;;;;;;5014722;28;20208;-92
2022/10/15 00:44:53;;;;;;;15.67;7.80;;;18.10;90.30;;;;;;5015837;28;20648;-94
2022/10/15 00:47:27;;;;;;;13.00;8.07;;;18.10;90.50;;;;;;4996000;28;20213;-94
2022/10/15 00:50:01;;;;;;;11.73;7.37;;;18.10;90.30;;;;;;5009414;28;20249;-94
2022/10/15 00:52:38;;;;;;;11.93;7.40;;;18.00;90.30;;;;;;5012876;28;20358;-94
2022/10/15 00:55:11;;;;;;;10.20;6.87;;;18.00;90.40;;;;;;5010942;28;20203;-93
2022/10/15 00:57:40;;;;;;;9.77;6.60;;;18.00;90.40;;;;;;5012598;28;20232;-93
2022/10/15 01:00:15;;;;;;;10.00;6.97;;;18.00;90.40;;;;;;5014956;28;20212;-95
2022/10/15 01:02:45;;;;;;;15.50;8.23;;;18.00;90.40;;;;;;5013229;28;20252;-95
2022/10/15 01:05:14;;;;;;;13.00;7.60;;;18.00;90.40;;;;;;5014849;28;20206;-94
2022/10/15 01:07:45;;;;;;;11.43;7.07;;;18.00;90.30;;;;;;5012346;28;20333;-95
2022/10/15 01:10:14;;;;;;;12.87;7.07;;;18.00;90.40;;;;;;5012314;28;20227;-94
2022/10/15 01:12:58;;;;;;;9.63;6.70;;;17.90;90.30;;;;;;5015424;28;20247;-94
2022/10/15 01:15:36;;;;;;;12.77;7.43;;;17.90;90.60;;;;;;5025202;28;20209;-94
2022/10/15 01:18:12;;;;;;;6.37;5.73;;;17.90;90.40;;;;;;5021947;28;20211;-94
2022/10/15 01:20:55;;;;;;;9.90;6.40;;;17.90;90.40;;;;;;5017576;28;20212;-92
2022/10/15 01:24:12;;;;;;;10.67;6.03;;;17.90;90.40;;;;;;5015668;28;20227;-94
2022/10/15 01:27:12;;;;;;;8.90;5.47;;;17.80;90.50;;;;;;5029203;27;20288;-94
2022/10/15 01:30:26;;;;;;;13.10;6.77;;;17.90;90.40;;;;;;5013615;28;20223;-94
2022/10/15 01:33:26;;;;;;;8.83;5.77;;;17.90;90.40;;;;;;5014269;28;20231;-95
2022/10/15 01:35:57;;;;;;;12.37;6.77;;;17.80;90.30;;;;;;5007040;28;20212;-93
2022/10/15 01:38:41;;;;;;;10.43;6.40;;;17.80;90.20;;;;;;5006253;28;20210;-93
2022/10/15 01:41:17;;;;;;;9.63;5.97;;;17.80;90.50;;;;;;5013402;28;20202;-94
2022/10/15 01:43:53;;;;;;;10.90;6.67;;;17.80;90.40;;;;;;5013011;28;20660;-94
2022/10/15 01:46:28;;;;;;;10.27;6.57;;;17.80;90.40;;;;;;5008792;28;20205;-94
2022/10/15 01:49:06;;;;;;;17.20;8.03;;;17.70;90.50;;;;;;5011972;28;20206;-95
2022/10/15 01:51:38;;;;;;;13.80;7.67;;;17.70;90.60;;;;;;5011972;28;20239;-93
2022/10/15 01:54:09;;;;;;;14.00;7.20;;;17.70;90.50;;;;;;5010671;28;20209;-94
2022/10/15 01:56:38;;;;;;;11.30;6.13;;;17.70;90.40;;;;;;5011804;28;20200;-94
2022/10/15 01:59:15;;;;;;;12.53;7.03;;;17.60;90.50;;;;;;5011442;28;20206;-94
2022/10/15 02:01:43;;;;;;;12.57;6.57;;;17.60;90.50;;;;;;5012964;28;20202;-95
2022/10/15 02:04:25;;;;;;;9.10;6.17;;;17.60;90.60;;;;;;5011592;28;20632;-94
2022/10/15 02:06:57;;;;;;;12.03;6.73;;;17.60;91.00;;;;;;5011241;28;20226;-93
2022/10/15 02:09:38;;;;;;;13.17;7.43;;;17.50;90.80;;;;;;5014006;28;20230;-93
2022/10/15 02:12:20;;;;;;;9.10;6.33;;;17.50;91.00;;;;;;5015363;28;20202;-95
2022/10/15 02:15:00;;;;;;;10.93;6.30;;;17.50;91.00;;;;;;5023869;28;20198;-93
2022/10/15 02:17:33;;;;;;;8.93;6.23;;;17.50;91.00;;;;;;5014728;28;20241;-93
2022/10/15 02:20:20;;;;;;;11.90;6.60;;;17.50;91.00;;;;;;5012116;28;20246;-93
2022/10/15 02:22:53;;;;;;;11.90;6.80;;;17.50;91.20;;;;;;5022691;28;20203;-93
2022/10/15 02:25:26;;;;;;;8.47;6.20;;;17.50;91.10;;;;;;5017256;28;20530;-94
2022/10/15 02:27:58;;;;;;;10.00;6.33;;;17.50;91.20;;;;;;5013724;28;20238;-93
2022/10/15 02:30:27;;;;;;;11.07;6.90;;;17.50;91.30;;;;;;5023743;28;20210;-95
2022/10/15 02:32:58;;;;;;;10.83;6.77;;;17.50;91.30;;;;;;5023833;28;20318;-93
2022/10/15 02:35:28;;;;;;;9.77;6.47;;;17.40;91.40;;;;;;5011228;28;20208;-94
2022/10/15 02:38:02;;;;;;;14.73;8.37;;;17.40;91.50;;;;;;5008421;28;20214;-94
2022/10/15 02:40:32;;;;;;;11.67;7.53;;;17.40;91.70;;;;;;5011619;28;20215;-94
2022/10/15 02:43:10;;;;;;;12.63;8.20;;;17.40;91.60;;;;;;5011557;28;20214;-94
2022/10/15 02:45:43;;;;;;;10.60;7.53;;;17.40;92.00;;;;;;5000568;28;20207;-94
2022/10/15 02:48:11;;;;;;;15.80;8.37;;;17.40;91.60;;;;;;4998849;28;20207;-94
2022/10/15 02:50:40;;;;;;;11.40;7.87;;;17.40;91.80;;;;;;5011315;28;20207;-91
2022/10/15 02:53:08;;;;;;;12.50;8.47;;;17.40;91.90;;;;;;5011282;28;20274;-93
2022/10/15 02:55:35;;;;;;;10.00;7.63;;;17.40;92.10;;;;;;5005810;28;20261;-94
2022/10/15 02:58:10;;;;;;;13.10;8.53;;;17.40;91.70;;;;;;5008170;28;20269;-95
2022/10/15 03:00:37;;;;;;;14.07;8.87;;;17.30;92.00;;;;;;5001549;28;20213;-94
2022/10/15 03:03:04;;;;;;;10.27;7.13;;;17.40;91.70;;;;;;5011415;28;20207;-93
2022/10/15 03:05:32;;;;;;;14.23;8.73;;;17.40;91.70;;;;;;5015071;28;20651;-93
2022/10/15 03:08:05;;;;;;;15.13;8.87;;;17.40;91.70;;;;;;5028543;28;20270;-92
2022/10/15 03:10:34;;;;;;;14.17;8.43;;;17.40;91.90;;;;;;5013861;28;20205;-94
2022/10/15 03:13:03;;;;;;;14.83;8.43;;;17.40;91.70;;;;;;5011882;28;20685;-93
2022/10/15 03:15:31;;;;;;;13.53;9.13;;;17.40;91.70;;;;;;5014465;28;20210;-94
2022/10/15 03:17:59;;;;;;;12.50;9.27;;;17.40;91.60;;;;;;5011593;28;20737;-94
2022/10/15 03:20:27;;;;;;;10.87;7.83;;;17.40;91.70;;;;;;5011133;28;20207;-94
2022/10/15 03:22:55;;;;;;;13.23;9.27;;;17.40;91.70;;;;;;5011650;28;20724;-93
2022/10/15 03:25:26;;;;;;;12.87;8.83;;;17.50;91.60;;;;;;5010349;28;20236;-94
2022/10/15 03:27:53;;;;;;;11.63;7.97;;;17.40;91.90;;;;;;5011276;28;20210;-93
2022/10/15 03:30:21;;;;;;;13.47;9.30;;;17.40;91.70;;;;;;4995502;28;20216;-93
2022/10/15 03:32:48;;;;;;;11.67;8.97;;;17.40;91.80;;;;;;5010929;28;20321;-93
2022/10/15 03:35:26;;;;;;;12.97;8.53;;;17.40;91.80;;;;;;5011895;28;20248;-94
2022/10/15 03:37:55;;;;;;;14.30;9.47;;;17.40;92.20;;;;;;5010344;28;20215;-94
2022/10/15 03:40:29;;;;;;;17.27;10.13;;;17.40;91.90;;;;;;5009976;28;20202;-94
2022/10/15 03:43:01;;;;;;;12.90;9.10;;;17.40;92.10;;;;;;5011754;28;20218;-92
2022/10/15 03:45:28;;;;;;;11.47;8.93;;;17.40;92.20;;;;;;5008792;28;20212;-94
2022/10/15 03:47:59;;;;;;;13.93;9.67;;;17.40;91.90;;;;;;5010513;28;20265;-94
2022/10/15 03:50:26;;;;;;;14.60;9.37;;;17.40;92.10;;;;;;5010313;28;20205;-95
2022/10/15 03:52:53;;;;;;;13.57;9.97;;;17.40;92.10;;;;;;4993422;28;20237;-91
2022/10/15 03:55:22;;;;;;;12.33;9.47;;;17.40;92.10;;;;;;5008913;28;20259;-93
2022/10/15 03:57:57;;;;;;;12.80;9.27;;;17.40;92.20;;;;;;5010148;28;20216;-94
2022/10/15 04:00:28;;;;;;;11.40;8.90;;;17.40;92.50;;;;;;5012179;28;20201;-94
2022/10/15 04:02:57;;;;;;;13.73;9.87;;;17.40;92.30;;;;;;5025784;28;20272;-94
2022/10/15 04:05:25;;;;;;;11.40;8.87;;;17.40;92.30;;;;;;5016786;28;20217;-94
2022/10/15 04:07:52;;;;;;;12.70;9.13;;;17.40;92.40;;;;;;5014556;28;20208;-94
2022/10/15 04:10:20;;;;;;;13.27;9.70;;;17.40;92.20;;;;;;5008956;28;20629;-93
2022/10/15 04:12:47;;;;;;;13.80;9.57;;;17.50;92.40;;;;;;5008345;28;20229;-94
2022/10/15 04:15:21;;;;;;;13.60;9.60;;;17.40;92.30;;;;;;5010371;28;20206;-93
2022/10/15 04:17:49;;;;;;;13.87;9.03;;;17.40;92.50;;;;;;5009304;28;20210;-93
2022/10/15 04:20:17;;;;;;;14.27;9.57;;;17.50;92.50;;;;;;5009724;28;20207;-94
2022/10/15 04:22:45;;;;;;;16.63;9.77;;;17.50;92.50;;;;;;5010755;28;20234;-94
2022/10/15 04:25:14;;;;;;;17.03;9.67;;;17.50;92.50;;;;;;5009533;28;20575;-93
2022/10/15 04:27:42;;;;;;;14.80;9.40;;;17.50;92.40;;;;;;5010101;28;20213;-95
2022/10/15 04:30:11;;;;;;;12.93;9.70;;;17.50;92.40;;;;;;5010423;28;20220;-93
2022/10/15 04:32:40;;;;;;;14.27;8.90;;;17.50;92.30;;;;;;5013227;28;20295;-94
2022/10/15 04:35:09;;;;;;;11.43;9.13;;;17.50;92.60;;;;;;5013534;28;20231;-93
2022/10/15 04:37:38;;;;;;;14.77;10.30;;;17.50;92.60;;;;;;5012943;28;20209;-93
2022/10/15 04:40:06;;;;;;;11.87;8.33;;;17.40;92.50;;;;;;5013375;28;20205;-94
2022/10/15 04:42:34;;;;;;;14.33;9.53;;;17.50;92.60;;;;;;5012821;28;20950;-93
2022/10/15 04:45:02;;;;;;;18.87;11.27;;;17.50;92.50;;;;;;5011486;28;20212;-94
2022/10/15 04:47:31;;;;;;;13.47;9.60;;;17.40;92.50;;;;;;5013326;28;20631;-94
2022/10/15 04:50:02;;;;;;;14.20;9.50;;;17.40;92.50;;;;;;5013552;28;20204;-94
2022/10/15 04:52:31;;;;;;;12.70;8.97;;;17.40;92.70;;;;;;5013726;28;20206;-93
2022/10/15 04:55:03;;;;;;;15.00;9.87;;;17.40;92.60;;;;;;5013926;28;20206;-94
2022/10/15 04:57:31;;;;;;;13.60;10.13;;;17.40;92.50;;;;;;5018935;28;20284;-94
2022/10/15 05:00:01;;;;;;;18.73;12.43;;;17.40;92.50;;;;;;5029996;28;20242;-94
2022/10/15 05:02:31;;;;;;;14.13;9.70;;;17.40;92.50;;;;;;5027099;28;20659;-94
2022/10/15 05:05:00;;;;;;;15.60;10.10;;;17.40;92.60;;;;;;5017638;28;20354;-94
2022/10/15 05:07:28;;;;;;;17.23;10.90;;;17.40;92.80;;;;;;5017708;28;20207;-94
2022/10/15 05:09:57;;;;;;;12.17;9.67;;;17.40;92.60;;;;;;5018907;28;20232;-94
2022/10/15 05:12:25;;;;;;;15.23;9.93;;;17.40;92.70;;;;;;5017091;28;20198;-94
2022/10/15 05:14:55;;;;;;;16.40;10.93;;;17.40;92.80;;;;;;5017694;28;20304;-94
2022/10/15 05:17:24;;;;;;;15.03;9.93;;;17.40;92.80;;;;;;5013350;28;20210;-95
2022/10/15 05:19:52;;;;;;;16.63;10.53;;;17.30;92.80;;;;;;5010135;28;20230;-94
2022/10/15 05:22:21;;;;;;;13.90;10.20;;;17.30;92.80;;;;;;5011955;28;20206;-94
2022/10/15 05:24:50;;;;;;;14.67;10.30;;;17.30;92.90;;;;;;5014268;28;20287;-94
2022/10/15 05:27:18;;;;;;;14.60;9.87;;;17.30;92.90;;;;;;5010751;28;20206;-94
2022/10/15 05:29:45;;;;;;;14.40;10.37;;;17.30;92.80;;;;;;5017496;28;20231;-93
2022/10/15 05:32:15;;;;;;;20.57;11.93;;;17.40;92.80;;;;;;5008562;28;20272;-93
2022/10/15 05:34:42;;;;;;;26.23;13.70;;;17.40;93.00;;;;;;5002833;28;20227;-94
2022/10/15 05:37:11;;;;;;;13.87;9.60;;;17.30;92.80;;;;;;5011908;28;20212;-94
2022/10/15 05:39:44;;;;;;;15.67;10.07;;;17.30;92.80;;;;;;5009120;28;20678;-92
2022/10/15 05:42:11;;;;;;;13.73;9.40;;;17.40;93.00;;;;;;5009582;28;20199;-94
2022/10/15 05:44:39;;;;;;;13.63;9.30;;;17.40;92.80;;;;;;5012412;28;20199;-94
2022/10/15 05:47:10;;;;;;;15.03;9.37;;;17.40;92.80;;;;;;5010208;28;20798;-93
2022/10/15 05:49:40;;;;;;;16.23;9.67;;;17.40;92.90;;;;;;5012448;28;20214;-93
2022/10/15 05:52:08;;;;;;;14.13;8.97;;;17.40;92.80;;;;;;5018453;28;20737;-94
2022/10/15 05:54:35;;;;;;;15.57;8.57;;;17.40;92.70;;;;;;5031815;28;20340;-94
2022/10/15 05:57:22;;;;;;;10.77;7.93;;;17.40;92.60;;;;;;5034915;27;20284;-94
2022/10/15 05:59:50;;;;;;;11.73;7.87;;;17.30;93.00;;;;;;5014496;28;20793;-93
2022/10/15 06:02:20;;;;;;;14.93;8.80;;;17.40;92.60;;;;;;5011635;28;20560;-94
2022/10/15 06:04:48;;;;;;;12.57;7.50;;;17.40;92.70;;;;;;5010713;28;20207;-94
2022/10/15 06:07:15;;;;;;;11.63;7.50;;;17.40;92.70;;;;;;5013173;28;20271;-94
2022/10/15 06:09:43;;;;;;;12.03;8.33;;;17.40;92.50;;;;;;5015096;28;20718;-94
2022/10/15 06:12:11;;;;;;;16.67;9.33;;;17.40;92.70;;;;;;5012633;28;20250;-92
2022/10/15 06:14:41;;;;;;;15.13;8.17;;;17.40;92.70;;;;;;5008554;28;20319;-94
2022/10/15 06:17:10;;;;;;;15.83;8.63;;;17.30;92.90;;;;;;5011920;28;20229;-93
2022/10/15 06:19:39;;;;;;;13.80;8.33;;;17.30;92.90;;;;;;5010512;28;20214;-93
2022/10/15 06:22:09;;;;;;;14.63;8.43;;;17.30;93.10;;;;;;5016910;28;20679;-93
2022/10/15 06:24:36;;;;;;;15.40;9.53;;;17.30;92.90;;;;;;5018675;28;20205;-93
2022/10/15 06:27:05;;;;;;;14.40;8.30;;;17.30;93.00;;;;;;5019777;28;20255;-93
2022/10/15 06:29:34;;;;;;;17.80;8.73;;;17.30;93.10;;;;;;5013581;28;20196;-93
2022/10/15 06:32:11;;;;;;;12.40;7.90;;;17.30;93.20;;;;;;5020439;28;20215;-94
2022/10/15 06:34:40;;;;;;;14.80;8.37;;;17.40;93.50;;;;;;5014091;27;20234;-93
2022/10/15 06:37:14;;;;;;;13.20;8.43;;;17.40;93.20;;;;;;5022066;28;20665;-94
2022/10/15 06:39:45;;;;;;;12.30;8.30;;;17.30;93.40;;;;;;5015564;28;20205;-93
2022/10/15 06:42:16;;;;;;;13.80;8.77;;;17.40;93.10;;;;;;5026848;28;20197;-94
2022/10/15 06:44:46;;;;;;;12.70;9.03;;;17.40;93.50;;;;;;5018971;28;20213;-93
2022/10/15 06:47:45;;;;;;;13.70;9.20;;;17.40;93.60;;;;;;5013597;28;20208;-93
2022/10/15 06:50:13;;;;;;;15.27;9.00;;;17.40;93.80;;;;;;5010491;28;20198;-94
2022/10/15 06:52:43;;;;;;;17.60;10.40;;;17.40;93.60;;;;;;5016928;28;20201;-95
2022/10/15 06:55:13;;;;;;;16.77;10.30;;;17.40;93.60;;;;;;4996769;28;20760;-93
2022/10/15 06:57:44;;;;;;;15.43;10.00;;;17.40;93.60;;;;;;5007253;28;20208;-93
2022/10/15 07:00:13;;;;;;;16.43;10.70;;;17.40;93.70;;;;;;5009572;28;20659;-94
2022/10/15 07:02:43;;;;;;;25.47;12.53;;;17.40;93.80;;;;;;5015350;28;20244;-95
2022/10/15 07:05:11;;;;;;;17.37;11.53;;;17.40;93.90;;;;;;5017215;28;20278;-94
2022/10/15 07:07:38;;;;;;;18.50;11.07;;;17.40;93.80;;;;;;5021316;28;20231;-94
2022/10/15 07:10:13;;;;;;;15.20;10.60;;;17.50;93.90;;;;;;5019115;28;20260;-93
2022/10/15 07:12:42;;;;;;;15.00;9.97;;;17.50;94.10;;;;;;5018988;28;20288;-93
2022/10/15 07:15:26;;;;;;;18.30;11.47;;;17.50;93.80;;;;;;5020162;28;20239;-92
2022/10/15 07:18:00;;;;;;;18.90;11.00;;;17.50;94.20;;;;;;5018577;28;20199;-94
2022/10/15 07:20:34;;;;;;;16.50;10.17;;;17.50;94.20;;;;;;5015636;28;20949;-94
2022/10/15 07:23:04;;;;;;;18.20;10.83;;;17.50;94.40;;;;;;5004564;28;20572;-92
2022/10/15 07:25:33;;;;;;;16.87;10.17;;;17.50;94.40;;;;;;5009165;28;20208;-93
2022/10/15 07:28:02;;;;;;;18.50;11.17;;;17.50;94.40;;;;;;5010548;28;20305;-94
2022/10/15 07:30:33;;;;;;;16.90;10.90;;;17.50;94.40;;;;;;5004367;28;20562;-94
2022/10/15 07:33:04;;;;;;;17.90;10.70;;;17.60;94.60;;;;;;5007754;28;20215;-94
2022/10/15 07:35:34;;;;;;;16.13;10.00;;;17.60;94.70;;;;;;5016652;28;20234;-94
2022/10/15 07:38:10;;;;;;;14.30;9.17;;;17.60;94.80;;;;;;5012605;28;20379;-96
2022/10/15 07:40:40;;;;;;;14.50;9.27;;;17.60;94.90;;;;;;5015268;28;20220;-94
2022/10/15 07:43:07;;;;;;;16.43;9.17;;;17.70;94.60;;;;;;5015276;28;20210;-93
2022/10/15 07:45:34;;;;;;;15.90;9.53;;;17.70;94.60;;;;;;5015251;27;20203;-93
2022/10/15 07:48:10;;;;;;;27.00;12.27;;;17.70;94.70;;;;;;5022777;27;20207;-93
2022/10/15 07:50:39;;;;;;;12.43;7.80;;;17.70;95.00;;;;;;5036041;28;20263;-95
2022/10/15 07:53:06;;;;;;;18.33;9.43;;;17.70;94.80;;;;;;5029663;28;20202;-93
2022/10/15 07:55:39;;;;;;;17.10;8.93;;;17.70;94.70;;;;;;5006179;28;20240;-93
2022/10/15 07:58:18;;;;;;;12.17;7.60;;;17.70;95.00;;;;;;5020390;28;20220;-93
2022/10/15 08:00:48;;;;;;;11.00;7.47;;;17.80;95.10;;;;;;5015177;28;20215;-92
2022/10/15 08:03:22;;;;;;;15.20;7.57;;;17.80;95.20;;;;;;5084843;28;20206;-92
2022/10/15 08:05:52;;;;;;;10.03;6.90;;;17.80;95.20;;;;;;5018358;28;20212;-93
2022/10/15 08:08:20;;;;;;;12.90;7.63;;;17.80;95.20;;;;;;5018025;28;20221;-92
2022/10/15 08:10:47;;;;;;;9.30;6.43;;;17.80;95.10;;;;;;5018684;28;20210;-93
2022/10/15 08:13:16;;;;;;;13.67;8.03;;;17.90;95.00;;;;;;5020184;28;20207;-93
2022/10/15 08:15:43;;;;;;;13.27;7.40;;;17.90;95.10;;;;;;5016747;28;20315;-92
2022/10/15 08:18:11;;;;;;;14.30;7.37;;;17.90;95.20;;;;;;5015114;28;20207;-92
2022/10/15 08:20:41;;;;;;;11.60;6.33;;;17.90;95.20;;;;;;5019894;28;20221;-93
2022/10/15 08:23:16;;;;;;;11.33;6.83;;;17.90;95.40;;;;;;5020722;27;20215;-92
2022/10/15 08:25:44;;;;;;;12.30;6.70;;;17.90;95.60;;;;;;5015558;28;20211;-93
2022/10/15 08:28:16;;;;;;;9.93;5.57;;;18.00;95.30;;;;;;5008169;28;20270;-94
2022/10/15 08:30:44;;;;;;;16.17;7.37;;;17.90;95.30;;;;;;5004679;28;20621;-93
2022/10/15 08:33:11;;;;;;;15.90;7.70;;;18.00;95.40;;;;;;5004938;28;20201;-93
2022/10/15 08:35:48;;;;;;;11.03;6.33;;;18.00;95.40;;;;;;5009122;28;20670;-93
2022/10/15 08:38:16;;;;;;;12.60;6.23;;;18.00;95.70;;;;;;5009197;28;20223;-93
2022/10/15 08:40:50;;;;;;;9.40;5.60;;;18.00;95.50;;;;;;5020807;28;20204;-93
2022/10/15 08:43:23;;;;;;;9.23;5.07;;;18.10;95.90;;;;;;5025733;28;20224;-92
2022/10/15 08:45:55;;;;;;;10.23;5.40;;;18.10;95.90;;;;;;5014411;28;20215;-93
2022/10/15 08:48:28;;;;;;;8.13;4.70;;;18.10;95.90;;;;;;5012870;28;20223;-93
2022/10/15 08:51:03;;;;;;;7.50;4.47;;;18.10;95.90;;;;;;5012587;28;20213;-93
2022/10/15 08:53:35;;;;;;;6.97;4.47;;;18.10;96.10;;;;;;5013576;28;20279;-92
2022/10/15 08:56:13;;;;;;;9.90;5.20;;;18.10;95.90;;;;;;5021639;28;20232;-94
2022/10/15 08:58:53;;;;;;;8.53;5.00;;;18.20;96.30;;;;;;5032183;28;20268;-94
2022/10/15 09:01:29;;;;;;;9.93;5.53;;;18.20;96.30;;;;;;5013304;28;20261;-94
2022/10/15 09:04:09;;;;;;;11.77;6.53;;;18.20;96.30;;;;;;5010418;28;20315;-95
2022/10/15 09:06:41;;;;;;;11.73;6.70;;;18.20;96.60;;;;;;5015444;28;20204;-93
2022/10/15 09:09:17;;;;;;;11.77;6.93;;;18.30;96.60;;;;;;5012793;28;20237;-93
2022/10/15 09:11:57;;;;;;;10.70;6.73;;;18.30;96.80;;;;;;5012525;28;20714;-93
2022/10/15 09:14:28;;;;;;;19.07;9.43;;;18.30;96.90;;;;;;5000068;28;20235;-94
2022/10/15 09:17:03;;;;;;;11.00;7.27;;;18.40;96.90;;;;;;5011570;28;20215;-94
2022/10/15 09:19:34;;;;;;;12.30;8.53;;;18.40;97.00;;;;;;5006196;28;20219;-94
2022/10/15 09:22:05;;;;;;;9.80;7.13;;;18.50;97.00;;;;;;5009150;28;20225;-94
2022/10/15 09:24:34;;;;;;;11.30;7.10;;;18.50;97.00;;;;;;5009860;28;20213;-93
2022/10/15 09:27:09;;;;;;;12.67;7.97;;;18.50;97.10;;;;;;5009843;28;20208;-93
2022/10/15 09:29:46;;;;;;;12.53;7.97;;;18.60;97.40;;;;;;5008329;28;20224;-93
2022/10/15 09:32:19;;;;;;;11.43;7.87;;;18.60;97.40;;;;;;5010339;28;20281;-94
2022/10/15 09:34:53;;;;;;;10.87;7.47;;;18.70;97.30;;;;;;4991575;28;20597;-93
2022/10/15 09:37:29;;;;;;;17.77;9.90;;;18.80;97.30;;;;;;5010159;28;20205;-95
2022/10/15 09:40:28;;;;;;;11.63;7.07;;;18.80;97.40;;;;;;5012617;28;20303;-96
2022/10/15 09:42:59;;;;;;;8.83;6.17;;;18.80;97.60;;;;;;4998329;28;20577;-95
2022/10/15 09:45:26;;;;;;;13.90;7.50;;;18.90;97.40;;;;;;5006602;28;20206;-93
2022/10/15 09:47:59;;;;;;;8.63;5.60;;;18.90;97.10;;;;;;5012461;28;20204;-94
2022/10/15 09:50:33;;;;;;;13.07;6.57;;;18.90;97.40;;;;;;5008423;28;20292;-93
2022/10/15 09:53:11;;;;;;;6.80;4.67;;;19.00;97.50;;;;;;5010496;28;20212;-94
2022/10/15 09:55:45;;;;;;;11.60;5.47;;;19.00;97.70;;;;;;5007616;28;20262;-93
2022/10/15 09:58:22;;;;;;;10.47;4.63;;;19.10;97.60;;;;;;5008304;28;20208;-93
2022/10/15 10:00:59;;;;;;;8.47;3.83;;;19.10;97.60;;;;;;5007720;28;20221;-93
2022/10/15 10:03:30;;;;;;;7.00;3.60;;;19.20;97.80;;;;;;5007754;27;20697;-94
2022/10/15 10:06:04;;;;;;;6.80;3.67;;;19.20;97.60;;;;;;5020615;28;20665;-94
2022/10/15 10:08:40;;;;;;;10.53;4.63;;;19.30;97.80;;;;;;5022359;28;20212;-94
2022/10/15 10:11:12;;;;;;;7.87;3.53;;;19.30;97.70;;;;;;5009408;28;20198;-94
2022/10/15 10:13:46;;;;;;;4.37;2.57;;;19.40;97.60;;;;;;5010293;28;20217;-92
2022/10/15 10:16:15;;;;;;;7.73;3.50;;;19.40;97.60;;;;;;5009776;28;20244;-94
2022/10/15 10:18:49;;;;;;;6.27;3.40;;;19.50;97.50;;;;;;5009375;28;20213;-91
2022/10/15 10:21:25;;;;;;;7.10;3.07;;;19.50;97.30;;;;;;5007649;28;20226;-94
2022/10/15 10:23:54;;;;;;;7.60;3.30;;;19.50;97.40;;;;;;5015937;28;20209;-92
2022/10/15 10:26:22;;;;;;;13.37;4.57;;;19.60;97.30;;;;;;4997667;28;20216;-95
2022/10/15 10:28:52;;;;;;;7.83;3.27;;;19.60;97.20;;;;;;5008102;28;20221;-92
2022/10/15 10:31:27;;;;;;;8.77;3.40;;;19.60;97.40;;;;;;5020339;28;20217;-91
2022/10/15 10:33:56;;;;;;;7.30;3.13;;;19.70;97.70;;;;;;5029765;28;20212;-92
2022/10/15 10:36:27;;;;;;;8.13;3.27;;;19.70;97.60;;;;;;5017933;28;20314;-92
2022/10/15 10:39:03;;;;;;;8.73;3.50;;;19.80;97.60;;;;;;5009405;28;20262;-91
2022/10/15 10:41:50;;;;;;;11.00;4.53;;;19.80;97.70;;;;;;5007664;28;20211;-92
2022/10/15 10:44:26;;;;;;;6.67;3.03;;;19.90;97.80;;;;;;4996241;28;20274;-91
2022/10/15 10:47:12;;;;;;;9.57;3.47;;;19.90;97.60;;;;;;5009760;28;20208;-90
2022/10/15 10:49:45;;;;;;;7.93;3.27;;;19.90;97.60;;;;;;5010875;28;20209;-91
2022/10/15 10:52:25;;;;;;;7.53;2.87;;;19.90;97.20;;;;;;5009689;28;20220;-92
2022/10/15 10:55:01;;;;;;;11.40;4.03;;;20.00;96.70;;;;;;5007948;28;20237;-91
2022/10/15 10:57:42;;;;;;;14.90;4.23;;;19.90;97.50;;;;;;5008941;28;20238;-93
2022/10/15 11:00:15;;;;;;;9.07;2.27;;;20.00;97.30;;;;;;5007845;28;21103;-90
2022/10/15 11:02:42;;;;;;;10.33;3.70;;;20.00;97.30;;;;;;5009438;28;20201;-91
2022/10/15 11:05:13;;;;;;;12.63;3.83;;;20.00;97.10;;;;;;4989567;28;21077;-91
2022/10/15 11:07:48;;;;;;;9.67;2.63;;;20.10;97.30;;;;;;5007177;28;20209;-92
2022/10/15 11:10:24;;;;;;;6.67;2.67;;;20.10;97.30;;;;;;5006434;28;20201;-92
2022/10/15 11:13:08;;;;;;;8.80;2.77;;;20.20;96.70;;;;;;5007297;28;20213;-93
2022/10/15 11:15:45;;;;;;;8.77;2.87;;;20.30;96.30;;;;;;4990566;28;20233;-91
2022/10/15 11:18:44;;;;;;;6.73;2.37;;;20.30;96.00;;;;;;5008238;28;20949;-93
2022/10/15 11:21:23;;;;;;;7.07;2.43;;;20.40;96.10;;;;;;4998601;28;20202;-92
2022/10/15 11:24:08;;;;;;;5.70;1.47;;;20.50;94.20;;;;;;5011585;28;20209;-92
2022/10/15 11:26:51;;;;;;;6.83;2.10;;;20.60;92.70;;;;;;5014516;28;20197;-93
2022/10/15 11:29:25;;;;;;;3.83;1.60;;;20.60;92.40;;;;;;5029524;28;20201;-92
2022/10/15 11:32:03;;;;;;;4.63;1.53;;;20.70;90.90;;;;;;5013900;28;20234;-92
2022/10/15 11:34:41;;;;;;;6.43;2.20;;;20.70;91.30;;;;;;5011517;28;20296;-91
2022/10/15 11:37:26;;;;;;;5.63;1.90;;;20.80;90.70;;;;;;5009306;28;20236;-90
2022/10/15 11:40:23;;;;;;;13.13;3.63;;;20.90;90.50;;;;;;5010216;28;20240;-92
2022/10/15 11:42:56;;;;;;;10.13;2.87;;;20.90;90.20;;;;;;5013018;28;20202;-89
2022/10/15 11:45:53;;;;;;;8.00;2.63;;;20.90;89.80;;;;;;5013115;28;20206;-91
2022/10/15 11:48:31;;;;;;;6.37;2.53;;;21.00;89.20;;;;;;5017796;28;20338;-91
2022/10/15 11:54:08;;;;;;;11.57;3.13;;;21.10;88.30;;;;;;5011676;28;20939;-91
2022/10/15 11:56:40;;;;;;;9.90;3.33;;;21.20;85.00;;;;;;5014666;28;20237;-91
2022/10/15 11:59:19;;;;;;;9.53;2.53;;;21.20;86.10;;;;;;5017407;28;20263;-90
2022/10/15 12:01:52;;;;;;;7.90;2.77;;;21.30;79.20;;;;;;5020277;28;20242;-90
2022/10/15 12:04:29;;;;;;;10.03;2.40;;;21.30;80.20;;;;;;5018560;28;20209;-92
2022/10/15 12:07:00;;;;;;;8.37;2.60;;;21.30;80.10;;;;;;5018405;28;20732;-91
2022/10/15 12:09:32;;;;;;;7.63;2.47;;;21.40;79.50;;;;;;5011389;28;20216;-90
2022/10/15 12:12:06;;;;;;;10.23;3.00;;;21.40;78.50;;;;;;5018968;28;20672;-93
2022/10/15 12:14:44;;;;;;;6.60;2.30;;;21.40;76.50;;;;;;5018346;28;20201;-92
2022/10/15 12:17:30;;;;;;;6.87;2.23;;;21.40;78.50;;;;;;5018311;28;20244;-94
2022/10/15 12:20:12;;;;;;;7.17;2.00;;;21.40;77.60;;;;;;5013195;28;20208;-95
2022/10/15 12:22:55;;;;;;;10.97;3.47;;;21.40;75.80;;;;;;5017669;28;20200;-93
2022/10/15 12:25:42;;;;;;;5.67;1.87;;;21.40;76.70;;;;;;5008772;28;20254;-94
2022/10/15 12:28:21;;;;;;;8.13;2.30;;;21.40;73.30;;;;;;5001041;28;20611;-92
2022/10/15 12:31:09;;;;;;;6.83;2.33;;;21.40;75.60;;;;;;5011067;28;20217;-90
2022/10/15 12:33:45;;;;;;;6.97;2.40;;;21.30;74.00;;;;;;5013092;28;20201;-93
2022/10/15 12:36:27;;;;;;;7.70;2.53;;;21.40;75.00;;;;;;5017062;28;20252;-91
2022/10/15 12:38:59;;;;;;;7.53;2.37;;;21.30;74.20;;;;;;5004347;28;20247;-93
2022/10/15 12:41:38;;;;;;;9.03;2.60;;;21.30;73.80;;;;;;5011445;28;20198;-90
2022/10/15 12:44:09;;;;;;;7.60;2.97;;;21.40;73.40;;;;;;5010550;28;20202;-93
2022/10/15 12:46:40;;;;;;;11.80;3.97;;;21.40;74.00;;;;;;5013229;28;20209;-92
2022/10/15 12:49:40;;;;;;;7.53;2.60;;;21.30;74.40;;;;;;5010865;28;20631;-91
2022/10/15 12:52:41;;;;;;;5.50;2.00;;;21.40;72.80;;;;;;5015462;28;20229;-94
2022/10/15 12:55:25;;;;;;;7.57;1.83;;;21.50;73.80;;;;;;5017270;28;20209;-92
2022/10/15 12:58:26;;;;;;;4.97;1.53;;;21.60;75.00;;;;;;5017004;28;20642;-92
2022/10/15 13:00:54;;;;;;;7.10;2.50;;;21.70;76.40;;;;;;5015721;28;20634;-92
2022/10/15 13:03:34;;;;;;;12.63;2.80;;;21.90;78.40;;;;;;5014278;28;20206;-93
2022/10/15 13:06:29;;;;;;;5.93;2.23;;;22.00;75.80;;;;;;5013179;28;20502;-94
2022/10/15 13:09:06;;;;;;;7.27;2.23;;;22.30;74.80;;;;;;5011511;28;20309;-91
2022/10/15 13:11:44;;;;;;;6.50;2.43;;;22.50;73.90;;;;;;5013315;28;20659;-93
2022/10/15 13:14:27;;;;;;;7.20;2.33;;;22.70;73.40;;;;;;5016954;28;20216;-92